createdAt,value
2019-02-28T00:00:41.428Z,6.67
2019-02-28T00:03:07.875Z,7.07
2019-02-28T00:05:33.996Z,7.10
2019-02-28T00:08:00.122Z,8.07
2019-02-28T00:10:28.150Z,8.03
2019-02-28T00:12:54.311Z,8.90
2019-02-28T00:15:20.631Z,9.83
2019-02-28T00:17:46.755Z,10.40
2019-02-28T00:20:12.968Z,10.83
2019-02-28T00:22:39.128Z,10.37
2019-02-28T00:25:06.833Z,10.33
2019-02-28T00:27:32.988Z,9.47
2019-02-28T00:29:59.238Z,9.20
2019-02-28T00:32:25.553Z,9.30
2019-02-28T00:34:51.771Z,8.43
2019-02-28T00:37:17.988Z,8.03
2019-02-28T00:39:44.116Z,7.67
2019-02-28T00:42:10.232Z,8.50
2019-02-28T00:44:36.403Z,9.10
2019-02-28T00:47:02.788Z,8.57
2019-02-28T00:49:28.930Z,8.60
2019-02-28T00:51:55.026Z,8.50
2019-02-28T00:54:21.279Z,8.47
2019-02-28T00:56:51.548Z,7.13
2019-02-28T00:59:15.424Z,8.33
2019-02-28T01:01:43.085Z,7.07
2019-02-28T01:04:09.674Z,7.07
2019-02-28T01:06:41.745Z,7.47
2019-02-28T01:09:07.151Z,6.90
2019-02-28T01:11:33.485Z,7.50
2019-02-28T01:14:01.553Z,6.83
2019-02-28T01:16:27.750Z,7.97
2019-02-28T01:18:54.055Z,8.03
2019-02-28T01:21:23.642Z,7.83
2019-02-28T01:23:48.292Z,8.00
2019-02-28T01:26:14.435Z,8.13
2019-02-28T01:28:40.558Z,8.20
2019-02-28T01:31:06.682Z,7.30
2019-02-28T01:33:34.754Z,8.03
2019-02-28T01:36:01.146Z,7.77
2019-02-28T01:38:27.244Z,7.60
2019-02-28T01:40:53.432Z,7.47
2019-02-28T01:43:19.565Z,7.60
2019-02-28T01:45:45.667Z,8.10
2019-02-28T01:48:11.894Z,8.30
2019-02-28T01:50:38.102Z,8.07
2019-02-28T01:53:04.242Z,7.63
2019-02-28T01:55:30.362Z,8.33
2019-02-28T01:57:56.503Z,9.13
2019-02-28T02:00:23.787Z,8.17
2019-02-28T02:02:50.948Z,7.73
2019-02-28T02:05:17.979Z,8.07
2019-02-28T02:07:44.515Z,9.13
2019-02-28T02:10:21.299Z,9.23
2019-02-28T02:12:45.611Z,7.77
2019-02-28T02:15:11.740Z,8.57
2019-02-28T02:17:38.071Z,8.20
2019-02-28T02:20:08.814Z,8.47
2019-02-28T02:22:35.014Z,9.07
2019-02-28T02:25:03.073Z,8.90
2019-02-28T02:27:29.291Z,8.27
2019-02-28T02:29:55.397Z,8.70
2019-02-28T02:32:21.658Z,8.57
2019-02-28T02:34:47.881Z,8.50
2019-02-28T02:37:14.175Z,9.43
2019-02-28T02:39:40.321Z,9.17
2019-02-28T02:42:11.332Z,9.13
2019-02-28T02:44:34.594Z,8.97
2019-02-28T02:47:01.005Z,9.33
2019-02-28T02:49:27.255Z,8.83
2019-02-28T02:51:53.448Z,9.07
2019-02-28T02:54:20.232Z,8.97
2019-02-28T02:56:46.589Z,9.67
2019-02-28T02:59:12.817Z,9.07
2019-02-28T03:01:38.923Z,9.27
2019-02-28T03:04:05.055Z,9.53
2019-02-28T03:06:31.160Z,9.13
2019-02-28T03:08:57.311Z,9.90
2019-02-28T03:11:24.776Z,9.00
2019-02-28T03:13:51.578Z,8.97
2019-02-28T03:16:17.749Z,9.63
2019-02-28T03:18:43.959Z,9.73
2019-02-28T03:21:10.175Z,9.80
2019-02-28T03:23:39.831Z,9.17
2019-02-28T03:26:06.886Z,10.00
2019-02-28T03:28:33.351Z,10.47
2019-02-28T03:31:11.599Z,10.40
2019-02-28T03:33:28.922Z,9.50
2019-02-28T03:35:55.335Z,10.00
2019-02-28T03:38:21.437Z,8.97
2019-02-28T03:40:47.576Z,9.93
2019-02-28T03:43:15.205Z,9.37
2019-02-28T03:45:41.447Z,9.93
2019-02-28T03:48:07.569Z,8.50
2019-02-28T03:50:33.703Z,10.37
2019-02-28T03:52:59.981Z,9.37
2019-02-28T03:55:26.357Z,9.90
2019-02-28T03:57:52.579Z,9.23
2019-02-28T04:00:22.450Z,9.63
2019-02-28T04:02:56.978Z,9.83
2019-02-28T04:05:16.877Z,9.63
2019-02-28T04:07:43.038Z,10.17
2019-02-28T04:10:11.042Z,11.23
2019-02-28T04:12:45.071Z,10.63
2019-02-28T04:15:11.832Z,11.07
2019-02-28T04:17:38.072Z,10.80
2019-02-28T04:20:05.402Z,10.07
2019-02-28T04:22:31.619Z,10.60
2019-02-28T04:24:57.821Z,11.17
2019-02-28T04:27:23.970Z,10.70
2019-02-28T04:29:50.110Z,11.43
2019-02-28T04:32:16.350Z,11.03
2019-02-28T04:34:45.723Z,11.20
2019-02-28T04:37:10.544Z,11.67
2019-02-28T04:39:36.662Z,12.17
2019-02-28T04:42:04.968Z,16.20
2019-02-28T04:44:33.016Z,15.90
2019-02-28T04:46:59.138Z,15.07
2019-02-28T04:49:25.262Z,15.27
2019-02-28T04:51:51.609Z,15.30
2019-02-28T04:54:17.842Z,15.60
2019-02-28T04:56:45.513Z,14.20
2019-02-28T04:59:12.087Z,14.63
2019-02-28T05:01:38.191Z,15.20
2019-02-28T05:04:04.370Z,13.57
2019-02-28T05:06:30.585Z,13.47
2019-02-28T05:08:56.725Z,12.63
2019-02-28T05:11:22.855Z,11.63
2019-02-28T05:13:50.064Z,12.53
2019-02-28T05:16:16.204Z,12.37
2019-02-28T05:18:42.327Z,14.13
2019-02-28T05:21:10.918Z,12.77
2019-02-28T05:23:37.042Z,13.33
2019-02-28T05:26:03.147Z,12.57
2019-02-28T05:28:29.271Z,13.97
2019-02-28T05:30:55.414Z,12.73
2019-02-28T05:33:21.524Z,13.50
2019-02-28T05:35:47.850Z,13.83
2019-02-28T05:38:13.951Z,15.20
2019-02-28T05:40:41.298Z,14.97
2019-02-28T05:43:07.722Z,16.00
2019-02-28T05:45:33.967Z,14.40
2019-02-28T05:48:03.952Z,12.93
2019-02-28T05:50:31.413Z,13.93
2019-02-28T05:52:57.754Z,15.70
2019-02-28T05:55:25.663Z,15.97
2019-02-28T05:57:52.009Z,17.70
2019-02-28T06:00:20.044Z,17.00
2019-02-28T06:02:46.240Z,19.50
2019-02-28T06:05:12.821Z,17.20
2019-02-28T06:07:39.368Z,20.43
2019-02-28T06:10:08.387Z,20.10
2019-02-28T06:12:34.603Z,19.67
2019-02-28T06:15:03.228Z,22.37
2019-02-28T06:17:28.864Z,20.57
2019-02-28T06:19:55.084Z,19.83
2019-02-28T06:22:21.238Z,20.07
2019-02-28T06:24:47.550Z,19.47
2019-02-28T06:27:13.688Z,18.03
2019-02-28T06:29:40.021Z,20.07
2019-02-28T06:32:06.251Z,20.50
2019-02-28T06:34:33.390Z,18.47
2019-02-28T06:37:00.344Z,18.73
2019-02-28T06:39:28.970Z,18.63
2019-02-28T06:41:55.259Z,17.47
2019-02-28T06:44:21.352Z,19.20
2019-02-28T06:46:50.559Z,17.37
2019-02-28T06:49:16.788Z,17.60
2019-02-28T06:51:43.047Z,16.90
2019-02-28T06:54:09.279Z,17.13
2019-02-28T06:56:35.402Z,17.53
2019-02-28T06:59:04.855Z,18.97
2019-02-28T07:01:29.686Z,19.37
2019-02-28T07:03:55.883Z,18.63
2019-02-28T07:06:21.991Z,18.70
2019-02-28T07:08:48.220Z,18.73
2019-02-28T07:11:14.333Z,19.93
2019-02-28T07:13:40.578Z,20.93
2019-02-28T07:16:06.678Z,17.70
2019-02-28T07:18:32.929Z,18.27
2019-02-28T07:20:59.110Z,18.30
2019-02-28T07:23:26.696Z,19.40
2019-02-28T07:25:53.339Z,18.20
2019-02-28T07:28:19.470Z,19.20
2019-02-28T07:30:45.569Z,17.90
2019-02-28T07:33:11.681Z,20.27
2019-02-28T07:35:37.802Z,21.17
2019-02-28T07:38:04.051Z,22.50
2019-02-28T07:40:30.242Z,22.30
2019-02-28T07:42:56.432Z,21.77
2019-02-28T07:45:22.562Z,20.03
2019-02-28T07:47:51.988Z,19.90
2019-02-28T07:50:16.941Z,28.53
2019-02-28T07:52:43.135Z,25.30
2019-02-28T07:55:19.231Z,23.33
2019-02-28T07:57:50.997Z,24.27
2019-02-28T08:00:20.627Z,25.40
2019-02-28T08:02:46.954Z,22.53
2019-02-28T08:05:13.272Z,26.07
2019-02-28T08:07:39.379Z,27.37
2019-02-28T08:10:18.372Z,27.40
2019-02-28T08:12:44.571Z,27.40
2019-02-28T08:15:18.128Z,25.57
2019-02-28T08:17:44.029Z,25.50
2019-02-28T08:20:10.059Z,23.83
2019-02-28T08:22:36.261Z,23.87
2019-02-28T08:25:07.766Z,23.67
2019-02-28T08:27:32.779Z,22.63
2019-02-28T08:29:59.018Z,22.53
2019-02-28T08:32:25.331Z,22.90
2019-02-28T08:34:51.596Z,23.73
2019-02-28T08:37:19.032Z,25.90
2019-02-28T08:39:45.849Z,29.53
2019-02-28T08:42:12.164Z,30.37
2019-02-28T08:44:38.276Z,30.73
2019-02-28T08:47:04.394Z,32.23
2019-02-28T08:49:30.705Z,33.07
2019-02-28T08:51:56.829Z,33.43
2019-02-28T08:54:27.272Z,34.63
2019-02-28T08:56:50.944Z,34.83
2019-02-28T08:59:20.424Z,33.27
2019-02-28T09:01:45.173Z,35.80
2019-02-28T09:04:11.329Z,35.00
2019-02-28T09:06:37.832Z,35.80
2019-02-28T09:09:08.731Z,35.20
2019-02-28T09:11:34.955Z,37.13
2019-02-28T09:14:01.231Z,37.20
2019-02-28T09:16:27.470Z,40.17
2019-02-28T09:18:53.894Z,39.73
2019-02-28T09:21:20.007Z,36.17
2019-02-28T09:23:46.358Z,40.67
2019-02-28T09:26:12.584Z,41.10
2019-02-28T09:28:38.725Z,42.83
2019-02-28T09:31:05.968Z,42.33
2019-02-28T09:33:32.283Z,42.40
2019-02-28T09:35:58.611Z,44.17
2019-02-28T09:38:24.895Z,43.43
2019-02-28T09:40:51.135Z,45.83
2019-02-28T09:43:17.257Z,46.03
2019-02-28T09:45:43.584Z,43.67
2019-02-28T09:48:09.738Z,47.57
2019-02-28T09:50:36.081Z,46.30
2019-02-28T09:53:02.438Z,46.10
2019-02-28T09:55:34.335Z,45.20
2019-02-28T09:57:57.537Z,45.23
2019-02-28T10:00:28.008Z,44.93
2019-02-28T10:02:54.220Z,49.70
2019-02-28T10:05:20.440Z,48.53
2019-02-28T10:07:46.695Z,48.80
2019-02-28T10:10:20.803Z,49.97
2019-02-28T10:12:47.150Z,50.53
2019-02-28T10:15:15.502Z,48.23
2019-02-28T10:17:42.309Z,48.67
2019-02-28T10:20:17.647Z,50.07
2019-02-28T10:22:44.420Z,50.40
2019-02-28T10:25:13.431Z,51.17
2019-02-28T10:27:39.706Z,49.80
2019-02-28T10:30:15.507Z,51.97
2019-02-28T10:32:43.377Z,49.90
2019-02-28T10:35:08.670Z,51.53
2019-02-28T10:37:35.693Z,49.33
2019-02-28T10:40:07.531Z,51.33
2019-02-28T10:42:33.745Z,52.13
2019-02-28T10:45:00.181Z,52.03
2019-02-28T10:47:29.616Z,52.13
2019-02-28T10:49:55.405Z,51.67
2019-02-28T10:52:23.441Z,51.23
2019-02-28T10:54:51.387Z,50.13
2019-02-28T10:57:18.015Z,51.67
2019-02-28T10:59:46.184Z,51.90
2019-02-28T11:02:19.005Z,53.17
2019-02-28T11:04:43.846Z,55.00
2019-02-28T11:07:10.473Z,54.23
2019-02-28T11:09:36.689Z,54.57
2019-02-28T11:12:03.286Z,52.90
2019-02-28T11:14:29.703Z,53.53
2019-02-28T11:16:59.363Z,55.50
2019-02-28T11:19:24.182Z,54.30
2019-02-28T11:21:50.512Z,54.30
2019-02-28T11:24:16.938Z,53.73
2019-02-28T11:26:44.730Z,53.70
2019-02-28T11:29:11.254Z,54.67
2019-02-28T11:31:37.926Z,53.53
2019-02-28T11:34:04.395Z,54.10
2019-02-28T11:36:34.162Z,52.47
2019-02-28T11:38:59.259Z,54.53
2019-02-28T11:41:25.709Z,56.23
2019-02-28T11:43:52.684Z,52.27
2019-02-28T11:46:19.018Z,55.57
2019-02-28T11:48:45.574Z,54.37
2019-02-28T11:51:14.581Z,56.47
2019-02-28T11:53:40.598Z,52.87
2019-02-28T11:56:06.944Z,55.83
2019-02-28T11:58:33.293Z,55.43
2019-02-28T12:00:59.722Z,53.80
2019-02-28T12:03:26.082Z,52.67
2019-02-28T12:05:52.537Z,52.70
2019-02-28T12:08:19.035Z,53.73
2019-02-28T12:10:45.532Z,53.17
2019-02-28T12:13:11.912Z,52.80
2019-02-28T12:15:39.531Z,53.73
2019-02-28T12:18:05.976Z,53.07
2019-02-28T12:20:33.603Z,51.33
2019-02-28T12:23:00.008Z,53.83
2019-02-28T12:25:26.606Z,55.83
2019-02-28T12:27:52.939Z,55.40
2019-02-28T12:30:22.016Z,56.10
2019-02-28T12:32:49.936Z,56.03
2019-02-28T12:35:16.246Z,55.73
2019-02-28T12:37:42.576Z,55.10
2019-02-28T12:40:12.117Z,55.90
2019-02-28T12:42:38.583Z,55.07
2019-02-28T12:45:08.962Z,57.63
2019-02-28T12:47:35.240Z,54.13
2019-02-28T12:50:01.726Z,55.73
2019-02-28T12:52:28.330Z,56.23
2019-02-28T12:54:56.334Z,54.83
2019-02-28T12:57:23.261Z,51.43
2019-02-28T12:59:49.509Z,52.67
2019-02-28T13:02:15.797Z,52.70
2019-02-28T13:04:42.229Z,53.67
2019-02-28T13:07:08.741Z,56.20
2019-02-28T13:09:35.087Z,56.87
2019-02-28T13:12:01.502Z,55.93
2019-02-28T13:14:27.995Z,55.83
2019-02-28T13:16:57.530Z,56.67
2019-02-28T13:19:23.041Z,56.37
2019-02-28T13:21:49.477Z,55.63
2019-02-28T13:24:15.912Z,54.37
2019-02-28T13:26:42.336Z,53.60
2019-02-28T13:29:10.065Z,55.53
2019-02-28T13:31:36.467Z,56.90
2019-02-28T13:34:02.986Z,53.47
2019-02-28T13:36:29.535Z,56.97
2019-02-28T13:38:56.048Z,55.07
2019-02-28T13:41:26.486Z,53.67
2019-02-28T13:43:50.729Z,53.03
2019-02-28T13:46:17.386Z,52.83
2019-02-28T13:48:43.883Z,52.80
2019-02-28T13:51:10.359Z,51.47
2019-02-28T13:53:36.879Z,52.53
2019-02-28T13:56:05.030Z,49.67
2019-02-28T13:58:31.656Z,52.40
2019-02-28T14:00:58.179Z,50.47
2019-02-28T14:03:24.621Z,51.23
2019-02-28T14:05:51.319Z,51.10
2019-02-28T14:08:17.826Z,51.23
2019-02-28T14:10:45.510Z,50.77
2019-02-28T14:13:12.050Z,50.97
2019-02-28T14:15:47.946Z,50.20
2019-02-28T14:18:13.986Z,48.53
2019-02-28T14:20:40.351Z,50.77
2019-02-28T14:23:06.978Z,49.07
2019-02-28T14:25:36.190Z,52.23
2019-02-28T14:28:01.565Z,45.90
2019-02-28T14:30:28.277Z,42.67
2019-02-28T14:32:54.749Z,43.80
2019-02-28T14:35:25.780Z,42.20
2019-02-28T14:37:55.562Z,41.10
2019-02-28T14:40:20.786Z,41.27
2019-02-28T14:42:47.332Z,41.17
2019-02-28T14:45:20.078Z,41.73
2019-02-28T14:47:56.235Z,41.17
2019-02-28T14:50:15.505Z,40.80
2019-02-28T14:52:42.902Z,41.50
2019-02-28T14:55:17.037Z,43.90
2019-02-28T14:57:43.657Z,41.23
2019-02-28T15:00:24.899Z,41.97
2019-02-28T15:02:59.450Z,41.43
2019-02-28T15:05:20.676Z,43.07
2019-02-28T15:07:48.133Z,39.43
2019-02-28T15:10:17.934Z,40.33
2019-02-28T15:12:46.612Z,40.77
2019-02-28T15:15:18.055Z,40.57
2019-02-28T15:17:43.471Z,40.27
2019-02-28T15:20:13.401Z,40.07
2019-02-28T15:22:42.153Z,41.90
2019-02-28T15:25:15.260Z,41.43
2019-02-28T15:27:40.970Z,40.57
2019-02-28T15:30:13.149Z,39.30
2019-02-28T15:32:39.868Z,43.73
2019-02-28T15:35:15.219Z,40.67
2019-02-28T15:37:42.687Z,42.53
2019-02-28T15:40:16.298Z,41.30
2019-02-28T15:42:44.112Z,43.03
2019-02-28T15:45:11.875Z,42.77
2019-02-28T15:47:38.807Z,41.97
2019-02-28T15:50:16.344Z,46.17
2019-02-28T15:52:42.319Z,43.17
2019-02-28T15:55:10.846Z,45.40
2019-02-28T15:57:37.856Z,48.77
2019-02-28T16:00:07.811Z,48.53
2019-02-28T16:02:34.161Z,46.70
2019-02-28T16:05:05.176Z,48.40
2019-02-28T16:07:32.242Z,49.97
2019-02-28T16:09:57.852Z,50.87
2019-02-28T16:12:24.034Z,51.00
2019-02-28T16:14:50.159Z,51.37
2019-02-28T16:17:16.618Z,52.17
2019-02-28T16:19:43.059Z,52.47
2019-02-28T16:22:09.295Z,50.83
2019-02-28T16:24:36.790Z,52.13
2019-02-28T16:27:03.824Z,49.77
2019-02-28T16:29:30.171Z,51.23
2019-02-28T16:31:56.481Z,51.57
2019-02-28T16:34:22.616Z,50.73
2019-02-28T16:36:48.841Z,55.43
2019-02-28T16:39:16.912Z,53.13
2019-02-28T16:41:43.284Z,52.93
2019-02-28T16:44:09.623Z,52.87
2019-02-28T16:46:35.946Z,53.80
2019-02-28T16:49:02.112Z,53.60
2019-02-28T16:51:29.442Z,54.40
2019-02-28T16:53:56.343Z,56.13
2019-02-28T16:56:22.676Z,55.53
2019-02-28T16:58:49.542Z,55.73
2019-02-28T17:01:17.520Z,55.07
2019-02-28T17:03:43.935Z,56.80
2019-02-28T17:06:10.054Z,56.73
2019-02-28T17:08:38.080Z,56.43
2019-02-28T17:11:04.487Z,56.40
2019-02-28T17:13:35.595Z,57.13
2019-02-28T17:16:15.176Z,57.20
2019-02-28T17:18:41.798Z,58.13
2019-02-28T17:21:08.053Z,58.57
2019-02-28T17:23:37.059Z,56.83
2019-02-28T17:26:02.472Z,58.93
2019-02-28T17:28:42.606Z,57.23
2019-02-28T17:31:27.656Z,59.50
2019-02-28T17:33:54.089Z,56.63
2019-02-28T17:36:20.656Z,55.20
2019-02-28T17:38:47.086Z,55.70
2019-02-28T17:41:13.233Z,53.20
2019-02-28T17:43:39.921Z,52.97
2019-02-28T17:46:09.755Z,50.27
2019-02-28T17:49:07.450Z,47.83
2019-02-28T17:51:40.270Z,44.40
2019-02-28T17:54:20.810Z,41.57
2019-02-28T17:56:56.845Z,41.43
2019-02-28T17:59:47.380Z,40.33
2019-02-28T18:02:38.889Z,40.87
2019-02-28T18:05:11.631Z,40.67
2019-02-28T18:07:57.852Z,39.40
2019-02-28T18:10:33.871Z,40.83
2019-02-28T18:13:12.179Z,40.27
2019-02-28T18:16:01.265Z,39.37
2019-02-28T18:18:31.313Z,40.40
2019-02-28T18:21:09.976Z,39.80
2019-02-28T18:23:52.258Z,41.43
2019-02-28T18:26:39.048Z,42.00
2019-02-28T18:29:11.860Z,39.33
2019-02-28T18:31:38.072Z,40.47
2019-02-28T18:34:04.355Z,44.37
2019-02-28T18:36:30.659Z,47.07
2019-02-28T18:38:57.059Z,43.70
2019-02-28T18:41:23.188Z,46.10
2019-02-28T18:43:49.537Z,47.10
2019-02-28T18:46:15.637Z,46.17
2019-02-28T18:48:41.813Z,50.17
2019-02-28T18:51:08.254Z,48.77
2019-02-28T18:53:36.299Z,47.30
2019-02-28T18:56:04.575Z,47.70
2019-02-28T18:58:30.886Z,48.17
2019-02-28T19:00:57.263Z,48.17
2019-02-28T19:03:23.617Z,47.97
2019-02-28T19:05:49.849Z,43.93
2019-02-28T19:08:16.184Z,45.20
2019-02-28T19:10:42.515Z,43.07
2019-02-28T19:13:08.631Z,42.97
2019-02-28T19:15:35.050Z,41.00
2019-02-28T19:18:01.368Z,39.17
2019-02-28T19:20:27.612Z,40.87
2019-02-28T19:22:53.829Z,39.63
2019-02-28T19:25:20.279Z,38.13
2019-02-28T19:27:47.121Z,39.93
2019-02-28T19:30:14.455Z,38.20
2019-02-28T19:32:40.787Z,37.47
2019-02-28T19:35:09.863Z,38.10
2019-02-28T19:37:36.149Z,35.13
2019-02-28T19:40:04.867Z,34.20
2019-02-28T19:42:31.116Z,39.90
2019-02-28T19:44:57.331Z,35.07
2019-02-28T19:47:23.489Z,34.57
2019-02-28T19:49:49.830Z,36.43
2019-02-28T19:52:16.296Z,34.03
2019-02-28T19:54:42.619Z,32.50
2019-02-28T19:57:11.530Z,32.67
2019-02-28T19:59:37.649Z,31.97
2019-02-28T20:02:04.340Z,31.70
2019-02-28T20:04:30.714Z,33.30
2019-02-28T20:06:57.027Z,33.67
2019-02-28T20:09:25.314Z,32.03
2019-02-28T20:11:51.756Z,32.73
2019-02-28T20:14:18.047Z,34.73
2019-02-28T20:16:46.187Z,32.93
2019-02-28T20:19:12.470Z,37.73
2019-02-28T20:21:38.777Z,31.83
2019-02-28T20:24:05.154Z,32.17
2019-02-28T20:26:37.032Z,31.70
2019-02-28T20:29:03.479Z,29.63
2019-02-28T20:31:29.814Z,29.47
2019-02-28T20:33:56.032Z,29.13
2019-02-28T20:36:22.404Z,28.73
2019-02-28T20:38:48.660Z,26.47
2019-02-28T20:41:14.813Z,27.00
2019-02-28T20:43:41.077Z,24.43
2019-02-28T20:46:07.390Z,26.43
2019-02-28T20:48:33.707Z,25.03
2019-02-28T20:50:59.929Z,25.40
2019-02-28T20:53:26.056Z,22.23
2019-02-28T20:55:52.452Z,24.13
2019-02-28T20:58:18.653Z,24.13
2019-02-28T21:00:45.087Z,22.70
2019-02-28T21:03:11.577Z,24.57
2019-02-28T21:05:37.859Z,26.83
2019-02-28T21:08:04.126Z,24.77
2019-02-28T21:10:30.594Z,25.13
2019-02-28T21:12:57.031Z,26.53
2019-02-28T21:15:24.768Z,22.43
2019-02-28T21:17:51.247Z,19.30
2019-02-28T21:20:17.500Z,18.63
2019-02-28T21:22:43.818Z,17.93
2019-02-28T21:25:14.815Z,19.33
2019-02-28T21:27:43.838Z,17.90
2019-02-28T21:30:19.562Z,16.27
2019-02-28T21:32:45.919Z,17.37
2019-02-28T21:35:14.432Z,16.87
2019-02-28T21:37:40.703Z,16.37
2019-02-28T21:40:13.056Z,18.10
2019-02-28T21:42:39.414Z,16.90
2019-02-28T21:45:18.423Z,16.83
2019-02-28T21:47:44.663Z,16.37
2019-02-28T21:50:13.502Z,18.93
2019-02-28T21:52:39.790Z,16.87
2019-02-28T21:55:08.798Z,18.23
2019-02-28T21:57:35.074Z,17.87
2019-02-28T22:00:02.819Z,16.00
2019-02-28T22:02:29.104Z,22.63
2019-02-28T22:04:57.133Z,17.47
2019-02-28T22:07:23.365Z,15.87
2019-02-28T22:09:49.585Z,17.27
2019-02-28T22:12:15.924Z,20.00
2019-02-28T22:14:42.156Z,16.67
2019-02-28T22:17:08.289Z,17.03
2019-02-28T22:19:34.436Z,15.90
2019-02-28T22:22:00.660Z,16.67
2019-02-28T22:24:26.822Z,14.47
2019-02-28T22:26:53.015Z,14.77
2019-02-28T22:29:19.251Z,14.77
2019-02-28T22:32:05.590Z,14.43
2019-02-28T22:34:35.980Z,13.10
2019-02-28T22:37:02.307Z,14.40
2019-02-28T22:39:28.453Z,13.77
2019-02-28T22:41:54.560Z,13.97
2019-02-28T22:44:20.716Z,13.93
2019-02-28T22:46:46.814Z,13.40
2019-02-28T22:49:13.085Z,13.20
2019-02-28T22:51:39.317Z,12.83
2019-02-28T22:54:05.422Z,13.07
2019-02-28T22:56:34.219Z,13.27
2019-02-28T22:59:00.437Z,12.80
2019-02-28T23:01:28.314Z,11.87
2019-02-28T23:03:54.479Z,11.57
2019-02-28T23:06:20.602Z,13.10
2019-02-28T23:08:46.696Z,13.10
2019-02-28T23:11:13.359Z,13.63
2019-02-28T23:13:39.491Z,13.13
2019-02-28T23:16:05.817Z,13.93
2019-02-28T23:18:32.063Z,14.33
2019-02-28T23:20:58.200Z,15.03
2019-02-28T23:23:24.299Z,14.67
2019-02-28T23:25:50.660Z,14.07
2019-02-28T23:28:22.605Z,15.60
2019-02-28T23:31:18.387Z,14.60
2019-02-28T23:33:45.401Z,15.37
2019-02-28T23:36:11.663Z,15.80
2019-02-28T23:38:37.878Z,15.87
2019-02-28T23:41:04.312Z,15.60
2019-02-28T23:43:30.536Z,16.03
2019-02-28T23:45:56.764Z,16.30
2019-02-28T23:48:22.988Z,16.93
2019-02-28T23:50:49.204Z,17.40
2019-02-28T23:53:15.429Z,16.83
2019-02-28T23:55:44.439Z,17.07
2019-02-28T23:58:10.562Z,15.90
